sensor_id;sensor_type;location;lat;lon;timestamp;pressure;altitude;pressure_sealevel;temperature;humidity
46614;BME280;32338;50.430;6.806;2023-04-30T00:00:27;66044.69;;;5.75;100.00
46614;BME280;32338;50.430;6.806;2023-04-30T00:02:54;66043.91;;;5.72;100.00
46614;BME280;32338;50.430;6.806;2023-04-30T00:05:22;66036.25;;;5.67;100.00
46614;BME280;32338;50.430;6.806;2023-04-30T00:07:48;66042.44;;;5.73;100.00
46614;BME280;32338;50.430;6.806;2023-04-30T00:10:15;66040.56;;;5.68;100.00
46614;BME280;32338;50.430;6.806;2023-04-30T00:12:41;66035.16;;;5.66;100.00
46614;BME280;32338;50.430;6.806;2023-04-30T00:15:09;66053.44;;;5.80;100.00
46614;BME280;32338;50.430;6.806;2023-04-30T00:17:35;66055.50;;;5.80;100.00
46614;BME280;32338;50.430;6.806;2023-04-30T00:20:03;66047.28;;;5.75;100.00
46614;BME280;32338;50.430;6.806;2023-04-30T00:22:31;66052.69;;;5.77;100.00
46614;BME280;32338;50.430;6.806;2023-04-30T00:24:58;66055.13;;;5.82;100.00
46614;BME280;32338;50.430;6.806;2023-04-30T00:27:25;66064.84;;;5.86;100.00
46614;BME280;32338;50.430;6.806;2023-04-30T00:29:52;66049.16;;;5.79;100.00
46614;BME280;32338;50.430;6.806;2023-04-30T00:32:19;66043.75;;;5.76;100.00
46614;BME280;32338;50.430;6.806;2023-04-30T00:34:45;66050.09;;;5.77;100.00
46614;BME280;32338;50.430;6.806;2023-04-30T00:37:12;66057.94;;;5.84;100.00
46614;BME280;32338;50.430;6.806;2023-04-30T00:39:40;66057.38;;;5.84;100.00
46614;BME280;32338;50.430;6.806;2023-04-30T00:42:06;66051.97;;;5.81;100.00
46614;BME280;32338;50.430;6.806;2023-04-30T00:44:33;66051.63;;;5.83;100.00
46614;BME280;32338;50.430;6.806;2023-04-30T00:47:00;66052.53;;;5.82;100.00
46614;BME280;32338;50.430;6.806;2023-04-30T00:49:26;66057.38;;;5.84;100.00
46614;BME280;32338;50.430;6.806;2023-04-30T00:51:53;66063.19;;;5.92;100.00
46614;BME280;32338;50.430;6.806;2023-04-30T00:54:20;66059.44;;;5.83;100.00
46614;BME280;32338;50.430;6.806;2023-04-30T00:56:48;66053.09;;;5.82;100.00
46614;BME280;32338;50.430;6.806;2023-04-30T00:59:15;66066.50;;;5.88;100.00
46614;BME280;32338;50.430;6.806;2023-04-30T01:01:42;66063.56;;;5.90;100.00
46614;BME280;32338;50.430;6.806;2023-04-30T01:04:09;66060.38;;;5.89;100.00
46614;BME280;32338;50.430;6.806;2023-04-30T01:06:36;66072.19;;;6.00;100.00
46614;BME280;32338;50.430;6.806;2023-04-30T01:09:03;66068.03;;;5.94;100.00
46614;BME280;32338;50.430;6.806;2023-04-30T01:11:35;66054.97;;;5.87;100.00
46614;BME280;32338;50.430;6.806;2023-04-30T01:14:11;66063.19;;;5.92;100.00
46614;BME280;32338;50.430;6.806;2023-04-30T01:16:42;66061.31;;;5.88;100.00
46614;BME280;32338;50.430;6.806;2023-04-30T01:19:19;66063.56;;;5.90;100.00
46614;BME280;32338;50.430;6.806;2023-04-30T01:21:48;66072.88;;;5.96;100.00
46614;BME280;32338;50.430;6.806;2023-04-30T01:24:31;66074.78;;;6.00;100.00
46614;BME280;32338;50.430;6.806;2023-04-30T01:27:07;66075.72;;;5.98;100.00
46614;BME280;32338;50.430;6.806;2023-04-30T01:29:40;66065.44;;;5.94;100.00
46614;BME280;32338;50.430;6.806;2023-04-30T01:32:09;66063.56;;;5.90;100.00
46614;BME280;32338;50.430;6.806;2023-04-30T01:34:36;66056.44;;;5.85;100.00
46614;BME280;32338;50.430;6.806;2023-04-30T01:37:11;66061.66;;;5.85;100.00
46614;BME280;32338;50.430;6.806;2023-04-30T01:40:07;66068.59;;;5.94;100.00
46614;BME280;32338;50.430;6.806;2023-04-30T01:42:44;66053.66;;;5.83;100.00
46614;BME280;32338;50.430;6.806;2023-04-30T01:45:20;66056.25;;;5.83;100.00
46614;BME280;32338;50.430;6.806;2023-04-30T01:47:54;66057.94;;;5.84;100.00
46614;BME280;32338;50.430;6.806;2023-04-30T01:50:28;66055.31;;;5.84;100.00
46614;BME280;32338;50.430;6.806;2023-04-30T01:53:01;66064.47;;;5.88;100.00
46614;BME280;32338;50.430;6.806;2023-04-30T01:55:33;66063.56;;;5.90;100.00
46614;BME280;32338;50.430;6.806;2023-04-30T01:58:04;66059.44;;;5.83;100.00
46614;BME280;32338;50.430;6.806;2023-04-30T02:00:32;66059.81;;;5.89;100.00
46614;BME280;32338;50.430;6.806;2023-04-30T02:02:59;66059.81;;;5.89;100.00
46614;BME280;32338;50.430;6.806;2023-04-30T02:05:25;66055.31;;;5.84;100.00
46614;BME280;32338;50.430;6.806;2023-04-30T02:07:52;66048.59;;;5.78;100.00
46614;BME280;32338;50.430;6.806;2023-04-30T02:10:20;66046.91;;;5.77;100.00
46614;BME280;32338;50.430;6.806;2023-04-30T02:12:47;66044.88;;;5.77;100.00
46614;BME280;32338;50.430;6.806;2023-04-30T02:15:14;66051.41;;;5.81;100.00
46614;BME280;32338;50.430;6.806;2023-04-30T02:17:42;66058.31;;;5.82;100.00
46614;BME280;32338;50.430;6.806;2023-04-30T02:20:09;66049.31;;;5.74;100.00
46614;BME280;32338;50.430;6.806;2023-04-30T02:22:36;66047.84;;;5.75;100.00
46614;BME280;32338;50.430;6.806;2023-04-30T02:25:03;66041.31;;;5.72;100.00
46614;BME280;32338;50.430;6.806;2023-04-30T02:27:31;66039.84;;;5.73;100.00
46614;BME280;32338;50.430;6.806;2023-04-30T02:29:58;66034.38;;;5.63;100.00
46614;BME280;32338;50.430;6.806;2023-04-30T02:32:25;66029.53;;;5.61;100.00
46614;BME280;32338;50.430;6.806;2023-04-30T02:34:53;66029.31;;;5.58;100.00
46614;BME280;32338;50.430;6.806;2023-04-30T02:37:20;66017.19;;;5.49;100.00
46614;BME280;32338;50.430;6.806;2023-04-30T02:39:47;66016.63;;;5.49;100.00
46614;BME280;32338;50.430;6.806;2023-04-30T02:42:13;66015.31;;;5.45;100.00
46614;BME280;32338;50.430;6.806;2023-04-30T02:44:40;66009.91;;;5.43;100.00
46614;BME280;32338;50.430;6.806;2023-04-30T02:47:07;65984.09;;;5.19;100.00
46614;BME280;32338;50.430;6.806;2023-04-30T02:49:33;65971.41;;;5.10;100.00
46614;BME280;32338;50.430;6.806;2023-04-30T02:52:01;65978.28;;;5.11;100.00
46614;BME280;32338;50.430;6.806;2023-04-30T02:54:28;65982.41;;;5.17;100.00
46614;BME280;32338;50.430;6.806;2023-04-30T02:56:55;65982.22;;;5.15;100.00
46614;BME280;32338;50.430;6.806;2023-04-30T02:59:21;65970.28;;;5.09;100.00
46614;BME280;32338;50.430;6.806;2023-04-30T03:01:48;65959.03;;;4.91;100.00
46614;BME280;32338;50.430;6.806;2023-04-30T03:04:14;65947.44;;;4.83;100.00
46614;BME280;32338;50.430;6.806;2023-04-30T03:06:41;65940.16;;;4.76;100.00
46614;BME280;32338;50.430;6.806;2023-04-30T03:09:09;65930.06;;;4.67;100.00
46614;BME280;32338;50.430;6.806;2023-04-30T03:11:35;65920.75;;;4.61;100.00
46614;BME280;32338;50.430;6.806;2023-04-30T03:14:02;65911.59;;;4.50;100.00
46614;BME280;32338;50.430;6.806;2023-04-30T03:16:29;65906.94;;;4.50;100.00
46614;BME280;32338;50.430;6.806;2023-04-30T03:18:56;65914.38;;;4.52;100.00
46614;BME280;32338;50.430;6.806;2023-04-30T03:21:22;65914.38;;;4.52;100.00
46614;BME280;32338;50.430;6.806;2023-04-30T03:23:49;65915.84;;;4.51;100.00
46614;BME280;32338;50.430;6.806;2023-04-30T03:26:17;65915.72;;;4.56;100.00
46614;BME280;32338;50.430;6.806;2023-04-30T03:28:44;65925.78;;;4.65;100.00
46614;BME280;32338;50.430;6.806;2023-04-30T03:31:10;65920.75;;;4.61;100.00
46614;BME280;32338;50.430;6.806;2023-04-30T03:33:37;65923.34;;;4.61;100.00
46614;BME280;32338;50.430;6.806;2023-04-30T03:36:04;65920.03;;;4.65;100.00
46614;BME280;32338;50.430;6.806;2023-04-30T03:38:31;65931.56;;;4.66;100.00
46614;BME280;32338;50.430;6.806;2023-04-30T03:40:58;65926.72;;;4.64;100.00
46614;BME280;32338;50.430;6.806;2023-04-30T03:43:26;65926.16;;;4.63;100.00
46614;BME280;32338;50.430;6.806;2023-04-30T03:45:52;65926.16;;;4.63;100.00
46614;BME280;32338;50.430;6.806;2023-04-30T03:48:19;65930.97;;;4.65;100.00
46614;BME280;32338;50.430;6.806;2023-04-30T03:50:45;65923.00;;;4.63;100.00
46614;BME280;32338;50.430;6.806;2023-04-30T03:53:12;65918.50;;;4.59;100.00
46614;BME280;32338;50.430;6.806;2023-04-30T03:55:39;65922.78;;;4.60;100.00
46614;BME280;32338;50.430;6.806;2023-04-30T03:58:05;65919.78;;;4.55;100.00
46614;BME280;32338;50.430;6.806;2023-04-30T04:00:34;65911.00;;;4.49;100.00
46614;BME280;32338;50.430;6.806;2023-04-30T04:03:01;65908.78;;;4.47;100.00
46614;BME280;32338;50.430;6.806;2023-04-30T04:05:27;65909.91;;;4.48;100.00
46614;BME280;32338;50.430;6.806;2023-04-30T04:07:54;65900.59;;;4.42;100.00
46614;BME280;32338;50.430;6.806;2023-04-30T04:10:21;65899.59;;;4.36;100.00
46614;BME280;32338;50.430;6.806;2023-04-30T04:12:47;65894.75;;;4.34;100.00
46614;BME280;32338;50.430;6.806;2023-04-30T04:15:14;65893.66;;;4.33;100.00
46614;BME280;32338;50.430;6.806;2023-04-30T04:17:42;65895.13;;;4.32;100.00
46614;BME280;32338;50.430;6.806;2023-04-30T04:20:09;65887.13;;;4.30;100.00
46614;BME280;32338;50.430;6.806;2023-04-30T04:22:37;65889.72;;;4.30;100.00
46614;BME280;32338;50.430;6.806;2023-04-30T04:25:04;65890.84;;;4.31;100.00
46614;BME280;32338;50.430;6.806;2023-04-30T04:27:31;65886.34;;;4.27;100.00
46614;BME280;32338;50.430;6.806;2023-04-30T04:29:57;65890.28;;;4.30;100.00
46614;BME280;32338;50.430;6.806;2023-04-30T04:32:24;65887.81;;;4.26;100.00
46614;BME280;32338;50.430;6.806;2023-04-30T04:34:53;65887.47;;;4.28;100.00
46614;BME280;32338;50.430;6.806;2023-04-30T04:37:21;65881.88;;;4.22;100.00
46614;BME280;32338;50.430;6.806;2023-04-30T04:39:48;65885.03;;;4.23;100.00
46614;BME280;32338;50.430;6.806;2023-04-30T04:42:15;65890.66;;;4.28;100.00
46614;BME280;32338;50.430;6.806;2023-04-30T04:44:42;65895.31;;;4.35;100.00
46614;BME280;32338;50.430;6.806;2023-04-30T04:47:09;65895.19;;;4.40;100.00
46614;BME280;32338;50.430;6.806;2023-04-30T04:49:36;65901.47;;;4.41;100.00
46614;BME280;32338;50.430;6.806;2023-04-30T04:52:05;65905.41;;;4.44;100.00
46614;BME280;32338;50.430;6.806;2023-04-30T04:54:31;65914.53;;;4.48;100.00
46614;BME280;32338;50.430;6.806;2023-04-30T04:56:58;65910.47;;;4.49;100.00
46614;BME280;32338;50.430;6.806;2023-04-30T04:59:25;65913.84;;;4.52;100.00
46614;BME280;32338;50.430;6.806;2023-04-30T05:01:52;65913.47;;;4.54;100.00
46614;BME280;32338;50.430;6.806;2023-04-30T05:04:18;65920.53;;;4.58;100.00
46614;BME280;32338;50.430;6.806;2023-04-30T05:06:45;65930.06;;;4.67;100.00
46614;BME280;32338;50.430;6.806;2023-04-30T05:09:13;65939.59;;;4.76;100.00
46614;BME280;32338;50.430;6.806;2023-04-30T05:11:39;65939.03;;;4.75;100.00
46614;BME280;32338;50.430;6.806;2023-04-30T05:14:08;65947.59;;;4.78;100.00
46614;BME280;32338;50.430;6.806;2023-04-30T05:16:34;65950.63;;;4.83;100.00
46614;BME280;32338;50.430;6.806;2023-04-30T05:19:02;65972.47;;;5.03;100.00
46614;BME280;32338;50.430;6.806;2023-04-30T05:21:28;65970.28;;;5.09;100.00
46614;BME280;32338;50.430;6.806;2023-04-30T05:23:56;65987.63;;;5.17;100.00
46614;BME280;32338;50.430;6.806;2023-04-30T05:26:24;65990.06;;;5.22;100.00
46614;BME280;32338;50.430;6.806;2023-04-30T05:28:51;65993.63;;;5.28;100.00
46614;BME280;32338;50.430;6.806;2023-04-30T05:31:17;65998.88;;;5.35;100.00
46614;BME280;32338;50.430;6.806;2023-04-30T05:33:44;66002.63;;;5.36;100.00
46614;BME280;32338;50.430;6.806;2023-04-30T05:36:10;66024.63;;;5.51;100.00
46614;BME280;32338;50.430;6.806;2023-04-30T05:38:37;66021.47;;;5.51;100.00
46614;BME280;32338;50.430;6.806;2023-04-30T05:41:04;66029.88;;;5.59;100.00
46614;BME280;32338;50.430;6.806;2023-04-30T05:43:32;66042.56;;;5.68;100.00
46614;BME280;32338;50.430;6.806;2023-04-30T05:45:58;66040.56;;;5.68;100.00
46614;BME280;32338;50.430;6.806;2023-04-30T05:48:25;66037.94;;;5.68;100.00
46614;BME280;32338;50.430;6.806;2023-04-30T05:50:52;66049.16;;;5.79;100.00
46614;BME280;32338;50.430;6.806;2023-04-30T05:53:18;66060.19;;;5.87;100.00
46614;BME280;32338;50.430;6.806;2023-04-30T05:55:45;66057.22;;;5.89;100.00
46614;BME280;32338;50.430;6.806;2023-04-30T05:58:11;66064.66;;;5.91;100.00
46614;BME280;32338;50.430;6.806;2023-04-30T06:00:39;66082.50;;;6.12;100.00
46614;BME280;32338;50.430;6.806;2023-04-30T06:03:06;66100.41;;;6.21;100.00
46614;BME280;32338;50.430;6.806;2023-04-30T06:05:33;66124.19;;;6.45;100.00
46614;BME280;32338;50.430;6.806;2023-04-30T06:07:59;66113.72;;;6.38;100.00
46614;BME280;32338;50.430;6.806;2023-04-30T06:10:26;66119.84;;;6.37;100.00
46614;BME280;32338;50.430;6.806;2023-04-30T06:12:52;66132.25;;;6.55;100.00
46614;BME280;32338;50.430;6.806;2023-04-30T06:15:19;66148.53;;;6.70;100.00
46614;BME280;32338;50.430;6.806;2023-04-30T06:17:47;66158.09;;;6.79;100.00
46614;BME280;32338;50.430;6.806;2023-04-30T06:20:13;66164.63;;;6.82;100.00
46614;BME280;32338;50.430;6.806;2023-04-30T06:22:40;66165.38;;;6.86;100.00
46614;BME280;32338;50.430;6.806;2023-04-30T06:25:07;66179.78;;;6.96;100.00
46614;BME280;32338;50.430;6.806;2023-04-30T06:27:34;66188.75;;;7.05;100.00
46614;BME280;32338;50.430;6.806;2023-04-30T06:30:01;66201.88;;;7.19;100.00
46614;BME280;32338;50.430;6.806;2023-04-30T06:32:27;66208.97;;;7.23;100.00
46614;BME280;32338;50.430;6.806;2023-04-30T06:34:55;66215.38;;;7.32;100.00
46614;BME280;32338;50.430;6.806;2023-04-30T06:37:22;66227.94;;;7.45;100.00
46614;BME280;32338;50.430;6.806;2023-04-30T06:39:48;66237.28;;;7.52;100.00
46614;BME280;32338;50.430;6.806;2023-04-30T06:42:15;66247.38;;;7.61;100.00
46614;BME280;32338;50.430;6.806;2023-04-30T06:44:42;66237.13;;;7.56;100.00
46614;BME280;32338;50.430;6.806;2023-04-30T06:47:09;66231.88;;;7.49;100.00
46614;BME280;32338;50.430;6.806;2023-04-30T06:49:36;66237.63;;;7.50;100.00
46614;BME280;32338;50.430;6.806;2023-04-30T06:52:04;66240.63;;;7.47;100.00
46614;BME280;32338;50.430;6.806;2023-04-30T06:54:30;66239.91;;;7.52;100.00
46614;BME280;32338;50.430;6.806;2023-04-30T06:56:57;66246.28;;;7.60;100.00
46614;BME280;32338;50.430;6.806;2023-04-30T06:59:24;66253.59;;;7.67;100.00
46614;BME280;32338;50.430;6.806;2023-04-30T07:01:50;66262.38;;;7.72;100.00
46614;BME280;32338;50.430;6.806;2023-04-30T07:04:17;66263.88;;;7.78;100.00
46614;BME280;32338;50.430;6.806;2023-04-30T07:06:44;66279.25;;;7.88;100.00
46614;BME280;32338;50.430;6.806;2023-04-30T07:09:12;66278.31;;;7.89;100.00
46614;BME280;32338;50.430;6.806;2023-04-30T07:11:39;66287.13;;;7.95;100.00
46614;BME280;32338;50.430;6.806;2023-04-30T07:14:07;66295.53;;;8.03;100.00
46614;BME280;32338;50.430;6.806;2023-04-30T07:16:33;66300.81;;;8.10;100.00
46614;BME280;32338;50.430;6.806;2023-04-30T07:19:00;66306.06;;;8.17;100.00
46614;BME280;32338;50.430;6.806;2023-04-30T07:21:26;66325.16;;;8.27;100.00
46614;BME280;32338;50.430;6.806;2023-04-30T07:23:53;66330.59;;;8.37;100.00
46614;BME280;32338;50.430;6.806;2023-04-30T07:26:21;66339.59;;;8.46;100.00
46614;BME280;32338;50.430;6.806;2023-04-30T07:28:49;66347.50;;;8.53;100.00
46614;BME280;32338;50.430;6.806;2023-04-30T07:31:15;66358.34;;;8.58;100.00
46614;BME280;32338;50.430;6.806;2023-04-30T07:33:43;66363.63;;;8.65;100.00
46614;BME280;32338;50.430;6.806;2023-04-30T07:36:10;66370.00;;;8.73;100.00
46614;BME280;32338;50.430;6.806;2023-04-30T07:38:37;66375.44;;;8.83;100.00
46614;BME280;32338;50.430;6.806;2023-04-30T07:41:03;66397.00;;;8.98;100.00
46614;BME280;32338;50.430;6.806;2023-04-30T07:43:31;66401.88;;;9.00;100.00
46614;BME280;32338;50.430;6.806;2023-04-30T07:45:58;66402.22;;;8.98;100.00
46614;BME280;32338;50.430;6.806;2023-04-30T07:48:25;66407.31;;;9.10;100.00
46614;BME280;32338;50.430;6.806;2023-04-30T07:50:51;66418.19;;;9.15;100.00
46614;BME280;32338;50.430;6.806;2023-04-30T07:53:18;66428.31;;;9.24;100.00
46614;BME280;32338;50.430;6.806;2023-04-30T07:55:44;66432.09;;;9.33;100.00
46614;BME280;32338;50.430;6.806;2023-04-30T07:58:11;66441.81;;;9.37;100.00
46614;BME280;32338;50.430;6.806;2023-04-30T08:00:39;66457.00;;;9.51;100.00
46614;BME280;32338;50.430;6.806;2023-04-30T08:03:06;66471.09;;;9.64;100.00
46614;BME280;32338;50.430;6.806;2023-04-30T08:05:33;66473.53;;;9.68;100.00
46614;BME280;32338;50.430;6.806;2023-04-30T08:08:00;66485.56;;;9.82;100.00
46614;BME280;32338;50.430;6.806;2023-04-30T08:10:27;66493.47;;;9.89;100.00
46614;BME280;32338;50.430;6.806;2023-04-30T08:12:53;66500.78;;;9.96;100.00
46614;BME280;32338;50.430;6.806;2023-04-30T08:15:20;66515.22;;;10.06;100.00
46614;BME280;32338;50.430;6.806;2023-04-30T08:17:49;66522.19;;;10.15;100.00
46614;BME280;32338;50.430;6.806;2023-04-30T08:20:16;66536.06;;;10.26;100.00
46614;BME280;32338;50.430;6.806;2023-04-30T08:22:43;66551.09;;;10.37;100.00
46614;BME280;32338;50.430;6.806;2023-04-30T08:25:10;66560.69;;;10.53;100.00
46614;BME280;32338;50.430;6.806;2023-04-30T08:27:37;66571.00;;;10.58;100.00
46614;BME280;32338;50.430;6.806;2023-04-30T08:30:04;66581.69;;;10.67;100.00
46614;BME280;32338;50.430;6.806;2023-04-30T08:32:33;66590.72;;;10.76;100.00
46614;BME280;32338;50.430;6.806;2023-04-30T08:35:01;66611.38;;;10.92;100.00
46614;BME280;32338;50.430;6.806;2023-04-30T08:37:28;66612.69;;;10.96;100.00
46614;BME280;32338;50.430;6.806;2023-04-30T08:39:54;66612.69;;;10.96;100.00
46614;BME280;32338;50.430;6.806;2023-04-30T08:42:24;66625.66;;;11.08;100.00
46614;BME280;32338;50.430;6.806;2023-04-30T08:44:51;66639.56;;;11.18;100.00
46614;BME280;32338;50.430;6.806;2023-04-30T08:47:19;66643.69;;;11.24;100.00
46614;BME280;32338;50.430;6.806;2023-04-30T08:49:46;66651.22;;;11.26;100.00
46614;BME280;32338;50.430;6.806;2023-04-30T08:52:14;66647.44;;;11.25;100.00
46614;BME280;32338;50.430;6.806;2023-04-30T08:54:41;66634.69;;;11.16;100.00
46614;BME280;32338;50.430;6.806;2023-04-30T08:57:09;66659.84;;;11.36;100.00
46614;BME280;32338;50.430;6.806;2023-04-30T08:59:36;66667.38;;;11.46;100.00
46614;BME280;32338;50.430;6.806;2023-04-30T09:02:03;66672.66;;;11.53;100.00
46614;BME280;32338;50.430;6.806;2023-04-30T09:04:30;66688.25;;;11.65;100.00
46614;BME280;32338;50.430;6.806;2023-04-30T09:06:57;66694.81;;;11.68;100.00
46614;BME280;32338;50.430;6.806;2023-04-30T09:09:28;66710.06;;;11.82;100.00
46614;BME280;32338;50.430;6.806;2023-04-30T09:12:10;66714.94;;;11.92;100.00
46614;BME280;32338;50.430;6.806;2023-04-30T09:14:38;66703.84;;;11.77;100.00
46614;BME280;32338;50.430;6.806;2023-04-30T09:17:05;66722.13;;;11.96;100.00
46614;BME280;32338;50.430;6.806;2023-04-30T09:19:33;66730.22;;;12.06;100.00
46614;BME280;32338;50.430;6.806;2023-04-30T09:22:17;66752.38;;;12.21;100.00
46614;BME280;32338;50.430;6.806;2023-04-30T09:24:47;66759.00;;;12.32;100.00
46614;BME280;32338;50.430;6.806;2023-04-30T09:27:15;66770.47;;;12.45;98.16
46614;BME280;32338;50.430;6.806;2023-04-30T09:29:42;66783.63;;;12.52;100.00
46614;BME280;32338;50.430;6.806;2023-04-30T09:32:09;66787.19;;;12.58;100.00
46614;BME280;32338;50.430;6.806;2023-04-30T09:34:36;66777.03;;;12.48;100.00
46614;BME280;32338;50.430;6.806;2023-04-30T09:37:02;66775.16;;;12.44;87.90
46614;BME280;32338;50.430;6.806;2023-04-30T09:39:29;66788.88;;;12.59;92.44
46614;BME280;32338;50.430;6.806;2023-04-30T09:42:08;66798.28;;;12.65;100.00
46614;BME280;32338;50.430;6.806;2023-04-30T09:44:36;66811.47;;;12.80;85.22
46614;BME280;32338;50.430;6.806;2023-04-30T09:47:03;66842.88;;;13.06;79.32
46614;BME280;32338;50.430;6.806;2023-04-30T09:49:30;66855.31;;;13.18;84.88
46614;BME280;32338;50.430;6.806;2023-04-30T09:51:57;66872.81;;;13.34;92.22
46614;BME280;32338;50.430;6.806;2023-04-30T09:54:27;66865.28;;;13.32;76.95
46614;BME280;32338;50.430;6.806;2023-04-30T09:56:55;66870.94;;;13.29;79.70
46614;BME280;32338;50.430;6.806;2023-04-30T09:59:29;66878.84;;;13.37;84.79
46614;BME280;32338;50.430;6.806;2023-04-30T10:01:57;66867.91;;;13.32;86.58
46614;BME280;32338;50.430;6.806;2023-04-30T10:04:25;66879.63;;;13.40;95.90
46614;BME280;32338;50.430;6.806;2023-04-30T10:06:53;66888.09;;;13.48;93.88
46614;BME280;32338;50.430;6.806;2023-04-30T10:09:25;66891.47;;;13.51;74.85
46614;BME280;32338;50.430;6.806;2023-04-30T10:11:56;66914.81;;;13.74;95.04
46614;BME280;32338;50.430;6.806;2023-04-30T10:14:26;66929.31;;;13.85;92.57
46614;BME280;32338;50.430;6.806;2023-04-30T10:16:58;66943.44;;;13.98;84.31
46614;BME280;32338;50.430;6.806;2023-04-30T10:19:29;66918.22;;;13.77;77.61
46614;BME280;32338;50.430;6.806;2023-04-30T10:21:56;66930.47;;;13.86;85.81
46614;BME280;32338;50.430;6.806;2023-04-30T10:24:23;66946.47;;;13.96;79.26
46614;BME280;32338;50.430;6.806;2023-04-30T10:26:50;66965.28;;;14.16;87.45
46614;BME280;32338;50.430;6.806;2023-04-30T10:29:17;66958.50;;;14.09;67.51
46614;BME280;32338;50.430;6.806;2023-04-30T10:31:47;66967.75;;;14.20;90.51
46614;BME280;32338;50.430;6.806;2023-04-30T10:34:21;66966.25;;;14.21;72.88
46614;BME280;32338;50.430;6.806;2023-04-30T10:36:55;66976.22;;;14.28;66.67
46614;BME280;32338;50.430;6.806;2023-04-30T10:39:25;66990.94;;;14.41;84.10
46614;BME280;32338;50.430;6.806;2023-04-30T10:42:00;66994.50;;;14.47;97.26
46614;BME280;32338;50.430;6.806;2023-04-30T10:44:30;67010.72;;;14.59;89.38
46614;BME280;32338;50.430;6.806;2023-04-30T10:46:59;67025.25;;;14.70;97.86
46614;BME280;32338;50.430;6.806;2023-04-30T10:49:26;67020.72;;;14.66;91.16
46614;BME280;32338;50.430;6.806;2023-04-30T10:51:53;67021.66;;;14.72;87.13
46614;BME280;32338;50.430;6.806;2023-04-30T10:54:25;67007.88;;;14.57;86.48
46614;BME280;32338;50.430;6.806;2023-04-30T10:56:53;67005.06;;;14.54;81.53
46614;BME280;32338;50.430;6.806;2023-04-30T10:59:22;67015.06;;;14.61;97.51
46614;BME280;32338;50.430;6.806;2023-04-30T11:01:59;67033.16;;;14.78;91.06
46614;BME280;32338;50.430;6.806;2023-04-30T11:04:26;67026.19;;;14.76;84.45
46614;BME280;32338;50.430;6.806;2023-04-30T11:07:01;67061.81;;;15.08;87.83
46614;BME280;32338;50.430;6.806;2023-04-30T11:09:40;67064.66;;;15.11;82.88
46614;BME280;32338;50.430;6.806;2023-04-30T11:12:12;67030.72;;;14.80;92.89
46614;BME280;32338;50.430;6.806;2023-04-30T11:14:40;67031.66;;;14.79;81.29
46614;BME280;32338;50.430;6.806;2023-04-30T11:17:10;67038.25;;;14.89;76.46
46614;BME280;32338;50.430;6.806;2023-04-30T11:19:46;67086.53;;;15.29;86.84
46614;BME280;32338;50.430;6.806;2023-04-30T11:22:15;67091.78;;;15.36;73.10
46614;BME280;32338;50.430;6.806;2023-04-30T11:24:52;67094.63;;;15.38;83.21
46614;BME280;32338;50.430;6.806;2023-04-30T11:27:20;67107.44;;;15.48;72.41
46614;BME280;32338;50.430;6.806;2023-04-30T11:29:48;67134.81;;;15.75;77.24
46614;BME280;32338;50.430;6.806;2023-04-30T11:32:17;67154.06;;;15.93;83.67
46614;BME280;32338;50.430;6.806;2023-04-30T11:34:44;67106.88;;;15.54;66.13
46614;BME280;32338;50.430;6.806;2023-04-30T11:37:11;67085.56;;;15.30;78.50
46614;BME280;32338;50.430;6.806;2023-04-30T11:39:39;67041.28;;;14.87;74.55
46614;BME280;32338;50.430;6.806;2023-04-30T11:42:07;67035.22;;;14.84;82.01
46614;BME280;32338;50.430;6.806;2023-04-30T11:44:33;67019.22;;;14.67;73.34
46614;BME280;32338;50.430;6.806;2023-04-30T11:47:00;66993.75;;;14.44;69.85
46614;BME280;32338;50.430;6.806;2023-04-30T11:49:28;66999.97;;;14.50;79.89
46614;BME280;32338;50.430;6.806;2023-04-30T11:51:55;66994.50;;;14.47;78.10
46614;BME280;32338;50.430;6.806;2023-04-30T11:54:22;66986.78;;;14.35;70.70
46614;BME280;32338;50.430;6.806;2023-04-30T11:56:48;67000.34;;;14.48;83.25
46614;BME280;32338;50.430;6.806;2023-04-30T11:59:16;67028.84;;;14.76;85.90
46614;BME280;32338;50.430;6.806;2023-04-30T12:01:43;67047.66;;;14.96;81.33
46614;BME280;32338;50.430;6.806;2023-04-30T12:04:09;67061.25;;;15.08;78.94
46614;BME280;32338;50.430;6.806;2023-04-30T12:06:37;67065.59;;;15.10;77.88
46614;BME280;32338;50.430;6.806;2023-04-30T12:09:04;67078.97;;;15.27;88.33
46614;BME280;32338;50.430;6.806;2023-04-30T12:11:34;67110.66;;;15.48;68.90
46614;BME280;32338;50.430;6.806;2023-04-30T12:14:02;67178.78;;;16.13;72.43
46614;BME280;32338;50.430;6.806;2023-04-30T12:16:38;67171.41;;;16.06;63.88
46614;BME280;32338;50.430;6.806;2023-04-30T12:19:06;67215.59;;;16.46;81.05
46614;BME280;32338;50.430;6.806;2023-04-30T12:21:34;67126.50;;;15.70;57.65
46614;BME280;32338;50.430;6.806;2023-04-30T12:24:02;67165.75;;;16.01;80.89
46614;BME280;32338;50.430;6.806;2023-04-30T12:26:35;67213.13;;;16.42;66.40
46614;BME280;32338;50.430;6.806;2023-04-30T12:29:04;67220.09;;;16.50;77.85
46614;BME280;32338;50.430;6.806;2023-04-30T12:31:31;67255.22;;;16.82;71.12
46614;BME280;32338;50.430;6.806;2023-04-30T12:34:02;67252.56;;;16.82;68.42
46614;BME280;32338;50.430;6.806;2023-04-30T12:36:30;67230.47;;;16.62;61.85
46614;BME280;32338;50.430;6.806;2023-04-30T12:39:04;67248.78;;;16.81;67.17
46614;BME280;32338;50.430;6.806;2023-04-30T12:41:35;67273.38;;;16.99;72.21
46614;BME280;32338;50.430;6.806;2023-04-30T12:44:18;67272.59;;;16.96;54.22
46614;BME280;32338;50.430;6.806;2023-04-30T12:46:45;67291.09;;;17.17;68.40
46614;BME280;32338;50.430;6.806;2023-04-30T12:49:21;67235.94;;;16.65;57.28
46614;BME280;32338;50.430;6.806;2023-04-30T12:51:48;67212.19;;;16.43;60.13
46614;BME280;32338;50.430;6.806;2023-04-30T12:54:23;67201.22;;;16.31;58.05
46614;BME280;32338;50.430;6.806;2023-04-30T12:56:57;67176.69;;;16.13;79.67
46614;BME280;32338;50.430;6.806;2023-04-30T12:59:25;67243.88;;;16.72;75.39
46614;BME280;32338;50.430;6.806;2023-04-30T13:01:52;67277.53;;;17.05;69.84
46614;BME280;32338;50.430;6.806;2023-04-30T13:04:19;67272.06;;;16.95;73.81